createdAt,value
2022-10-18T00:00:08.166Z,10
2022-10-18T00:05:14.843Z,9.5
2022-10-18T00:10:21.512Z,10
2022-10-18T00:15:28.780Z,10
2022-10-18T00:20:36.047Z,10
2022-10-18T00:25:43.318Z,10
2022-10-18T00:30:50.590Z,10
2022-10-18T00:35:57.871Z,10
2022-10-18T00:41:05.194Z,10
2022-10-18T00:46:12.498Z,10
2022-10-18T00:51:19.814Z,10
2022-10-18T00:56:27.110Z,10
2022-10-18T01:01:34.378Z,10
2022-10-18T01:06:41.691Z,10
2022-10-18T01:11:49.047Z,10
2022-10-18T01:16:56.316Z,10
2022-10-18T01:22:04.620Z,10
2022-10-18T01:27:11.005Z,9.5
2022-10-18T01:32:17.179Z,10
2022-10-18T01:37:23.420Z,10
2022-10-18T01:42:29.671Z,10
2022-10-18T01:47:35.887Z,10
2022-10-18T01:52:42.143Z,10
2022-10-18T01:57:47.313Z,10
2022-10-18T02:02:53.520Z,10
2022-10-18T02:07:59.753Z,10
2022-10-18T02:13:05.966Z,10
2022-10-18T02:18:12.229Z,10
2022-10-18T02:23:18.464Z,10
2022-10-18T02:28:24.705Z,10
2022-10-18T02:33:30.948Z,10
2022-10-18T02:38:37.166Z,10
2022-10-18T02:43:43.392Z,9.5
2022-10-18T02:48:49.584Z,10
2022-10-18T02:53:55.807Z,10
2022-10-18T02:59:02.031Z,10
2022-10-18T03:04:07.285Z,10
2022-10-18T03:09:13.513Z,10
2022-10-18T03:14:19.730Z,10
2022-10-18T03:19:24.956Z,9.5
2022-10-18T03:24:31.218Z,10
2022-10-18T03:29:37.444Z,10
2022-10-18T03:34:43.682Z,10
2022-10-18T03:39:49.904Z,10
2022-10-18T03:44:56.117Z,10
2022-10-18T03:50:02.397Z,10
2022-10-18T03:55:08.630Z,10
2022-10-18T04:00:14.793Z,10
2022-10-18T04:05:20.984Z,10
2022-10-18T04:10:27.205Z,10
2022-10-18T04:15:33.401Z,10
2022-10-18T04:20:39.617Z,10
2022-10-18T04:25:44.760Z,10
2022-10-18T04:30:50.955Z,10
2022-10-18T04:35:57.082Z,10
2022-10-18T04:41:03.299Z,10
2022-10-18T04:46:09.462Z,10
2022-10-18T04:51:15.663Z,10
2022-10-18T04:56:21.874Z,10
2022-10-18T05:01:28.041Z,10
2022-10-18T05:06:33.201Z,10
2022-10-18T05:11:38.363Z,9.5
2022-10-18T05:16:44.555Z,10
2022-10-18T05:21:50.722Z,10
2022-10-18T05:26:56.904Z,10
2022-10-18T05:32:03.086Z,10
2022-10-18T05:37:09.285Z,10
2022-10-18T05:42:15.513Z,10
2022-10-18T05:47:21.849Z,10
2022-10-18T05:52:27.899Z,10
2022-10-18T05:57:34.083Z,10
2022-10-18T06:02:40.339Z,10
2022-10-18T06:07:46.566Z,10
2022-10-18T06:12:52.762Z,10
2022-10-18T06:17:58.978Z,10
2022-10-18T06:23:05.193Z,10
2022-10-18T06:28:10.465Z,10
2022-10-18T06:33:16.635Z,10
2022-10-18T06:38:22.818Z,10
2022-10-18T06:43:28.967Z,10
2022-10-18T06:53:41.310Z,10
2022-10-18T06:58:47.538Z,10
2022-10-18T07:03:53.798Z,10
2022-10-18T07:08:59.920Z,10
2022-10-18T07:14:05.148Z,10
2022-10-18T07:19:11.345Z,10
2022-10-18T07:24:17.538Z,10
2022-10-18T07:29:22.678Z,10
2022-10-18T07:34:28.843Z,10
2022-10-18T07:39:35.044Z,10
2022-10-18T07:44:41.299Z,10
2022-10-18T07:49:47.469Z,10
2022-10-18T07:54:53.653Z,10
2022-10-18T07:59:59.865Z,9.5
2022-10-18T08:05:06.103Z,10
2022-10-18T08:10:12.304Z,10
2022-10-18T08:15:18.517Z,10
2022-10-18T08:20:24.708Z,10
2022-10-18T08:25:30.956Z,10
2022-10-18T08:30:37.097Z,10
2022-10-18T08:35:43.462Z,10
2022-10-18T08:40:49.615Z,10
2022-10-18T08:45:55.881Z,10
2022-10-18T08:51:02.121Z,10
2022-10-18T08:56:08.232Z,10
2022-10-18T09:01:14.466Z,10
2022-10-18T09:06:20.639Z,10
2022-10-18T09:11:26.840Z,10
2022-10-18T09:16:33.037Z,10
2022-10-18T09:21:39.313Z,10
2022-10-18T09:26:45.628Z,10
2022-10-18T09:31:51.783Z,10
2022-10-18T09:36:57.961Z,10
2022-10-18T09:42:04.225Z,10
2022-10-18T09:47:10.531Z,10
2022-10-18T09:52:16.669Z,10
2022-10-18T09:57:23.025Z,10
2022-10-18T10:02:29.167Z,10
2022-10-18T10:07:35.341Z,10
2022-10-18T10:12:41.587Z,10
2022-10-18T10:17:47.901Z,10
2022-10-18T10:22:53.982Z,10
2022-10-18T10:28:00.198Z,10
2022-10-18T10:33:06.443Z,10
2022-10-18T10:38:12.722Z,10
2022-10-18T10:43:19.060Z,10
2022-10-18T10:48:25.354Z,10
2022-10-18T10:53:31.729Z,10
2022-10-18T10:58:38.043Z,10
2022-10-18T11:03:44.405Z,10
2022-10-18T11:08:50.758Z,10
2022-10-18T11:13:57.121Z,10
2022-10-18T11:19:03.469Z,10
2022-10-18T11:24:09.872Z,10
2022-10-18T11:29:16.228Z,10
2022-10-18T11:34:22.564Z,10
2022-10-18T11:39:28.906Z,10
2022-10-18T11:44:35.391Z,10
2022-10-18T11:49:41.831Z,10
2022-10-18T11:54:48.390Z,10.5
2022-10-18T11:59:54.777Z,10.5
2022-10-18T12:05:01.243Z,10.5
2022-10-18T12:10:07.685Z,10.5
2022-10-18T12:15:14.204Z,10.5
2022-10-18T12:20:20.606Z,10.5
2022-10-18T12:25:27.086Z,10.5
2022-10-18T12:30:33.592Z,10.5
2022-10-18T12:35:40.117Z,10.5
2022-10-18T12:40:46.570Z,11
2022-10-18T12:45:53.128Z,11
2022-10-18T12:50:59.848Z,11
2022-10-18T12:56:06.500Z,11
2022-10-18T13:01:13.202Z,11
2022-10-18T13:06:19.925Z,11
2022-10-18T13:11:26.643Z,11
2022-10-18T13:16:33.365Z,11
2022-10-18T13:21:40.071Z,11
2022-10-18T13:26:46.759Z,11.5
2022-10-18T13:31:53.428Z,11.5
2022-10-18T13:37:00.108Z,11.5
2022-10-18T13:42:06.800Z,11.5
2022-10-18T13:47:13.478Z,11.5
2022-10-18T13:52:20.232Z,11.5
2022-10-18T13:57:27.585Z,11.5
2022-10-18T14:02:34.960Z,12
2022-10-18T14:07:42.316Z,12
2022-10-18T14:12:49.656Z,12
2022-10-18T14:17:56.954Z,12
2022-10-18T14:23:04.247Z,12
2022-10-18T14:28:11.550Z,12.5
2022-10-18T14:33:18.899Z,12.5
2022-10-18T14:38:26.259Z,12.5
2022-10-18T14:43:33.630Z,12
2022-10-18T14:48:40.968Z,12.5
2022-10-18T14:53:48.353Z,12.5
2022-10-18T14:58:55.643Z,12.5
2022-10-18T15:04:04.013Z,12.5
2022-10-18T15:09:10.584Z,12.5
2022-10-18T15:14:16.861Z,12.5
2022-10-18T15:19:23.087Z,12.5
2022-10-18T15:29:35.631Z,13
2022-10-18T15:34:41.862Z,13
2022-10-18T15:39:48.122Z,13
2022-10-18T15:44:54.364Z,13
2022-10-18T15:50:00.630Z,13
2022-10-18T15:55:06.929Z,13
2022-10-18T16:00:13.150Z,13
2022-10-18T16:05:19.384Z,13
2022-10-18T16:10:25.643Z,13
2022-10-18T16:15:31.901Z,13
2022-10-18T16:20:38.149Z,13
2022-10-18T16:25:44.395Z,13
2022-10-18T16:30:50.631Z,13
2022-10-18T16:35:56.908Z,13
2022-10-18T16:41:03.203Z,13
2022-10-18T16:46:09.483Z,13
2022-10-18T16:51:15.738Z,13
2022-10-18T16:56:21.921Z,13
2022-10-18T17:01:28.158Z,13.5
2022-10-18T17:06:34.365Z,13
2022-10-18T17:11:40.597Z,13.5
2022-10-18T17:16:46.863Z,13
2022-10-18T17:21:53.187Z,13
2022-10-18T17:26:59.527Z,13
2022-10-18T17:32:05.868Z,13
2022-10-18T17:37:12.202Z,13
2022-10-18T17:42:18.530Z,13
2022-10-18T17:47:24.818Z,13.5
2022-10-18T17:52:31.231Z,13.5
2022-10-18T17:57:37.443Z,13.5
2022-10-18T18:02:43.752Z,13.5
2022-10-18T18:07:50.103Z,13.5
2022-10-18T18:12:56.443Z,13.5
2022-10-18T18:18:02.764Z,13.5
2022-10-18T18:23:09.210Z,13.5
2022-10-18T18:28:15.604Z,13.5
2022-10-18T18:33:22.045Z,13.5
2022-10-18T18:38:28.517Z,13.5
2022-10-18T18:43:34.944Z,13.5
2022-10-18T18:48:41.393Z,13.5
2022-10-18T18:53:47.866Z,14
2022-10-18T18:58:54.311Z,14
2022-10-18T19:04:00.823Z,14
2022-10-18T19:09:07.276Z,14
2022-10-18T19:14:13.713Z,14
2022-10-18T19:19:20.183Z,14
2022-10-18T19:24:26.669Z,14
2022-10-18T19:29:33.364Z,13.5
2022-10-18T19:34:40.006Z,14
2022-10-18T19:39:46.642Z,14
2022-10-18T19:44:53.411Z,13.5
2022-10-18T19:50:00.018Z,13.5
2022-10-18T19:55:06.739Z,13.5
2022-10-18T20:00:13.460Z,13.5
2022-10-18T20:05:20.067Z,13.5
2022-10-18T20:10:26.736Z,13.5
2022-10-18T20:15:33.400Z,13.5
2022-10-18T20:20:40.018Z,13.5
2022-10-18T20:25:46.652Z,13.5
2022-10-18T20:30:53.310Z,13.5
2022-10-18T20:36:00.584Z,13.5
2022-10-18T20:41:07.904Z,13.5
2022-10-18T20:46:15.239Z,14
2022-10-18T20:51:22.554Z,14
2022-10-18T20:56:29.890Z,13.5
2022-10-18T21:01:37.290Z,14
2022-10-18T21:06:44.507Z,14
2022-10-18T21:11:51.861Z,14
2022-10-18T21:16:59.156Z,14
2022-10-18T21:22:06.437Z,14
2022-10-18T21:27:13.752Z,14
2022-10-18T21:32:21.061Z,14
2022-10-18T21:37:28.393Z,14
2022-10-18T21:42:36.741Z,14
2022-10-18T21:47:43.152Z,14
2022-10-18T21:52:49.442Z,14
2022-10-18T21:57:55.807Z,14
2022-10-18T22:03:02.077Z,14
2022-10-18T22:08:08.348Z,14
2022-10-18T22:13:14.627Z,14
2022-10-18T22:18:20.908Z,14
2022-10-18T22:23:27.192Z,14
2022-10-18T22:28:33.506Z,14
2022-10-18T22:33:39.802Z,14
2022-10-18T22:38:46.126Z,14
2022-10-18T22:43:52.451Z,14
2022-10-18T22:48:58.734Z,14
2022-10-18T22:54:05.094Z,14
2022-10-18T22:59:11.394Z,14
2022-10-18T23:04:17.806Z,14
2022-10-18T23:09:24.178Z,14
2022-10-18T23:14:30.407Z,14
2022-10-18T23:19:36.742Z,14
2022-10-18T23:24:43.060Z,14
2022-10-18T23:34:55.768Z,14
2022-10-18T23:40:02.182Z,14
2022-10-18T23:45:08.459Z,14
2022-10-18T23:50:14.829Z,14
2022-10-18T23:55:21.307Z,14
